sensor_id;sensor_type;location;lat;lon;timestamp;pressure;altitude;pressure_sealevel;temperature;humidity
35848;BME280;22332;51.954;20.118;2023-03-18T00:02:14;100556.20;;;3.24;51.70
35848;BME280;22332;51.954;20.118;2023-03-18T00:05:21;100555.12;;;3.22;51.76
35848;BME280;22332;51.954;20.118;2023-03-18T00:08:27;100557.95;;;3.21;51.90
35848;BME280;22332;51.954;20.118;2023-03-18T00:11:33;100554.08;;;3.19;51.92
35848;BME280;22332;51.954;20.118;2023-03-18T00:14:39;100554.09;;;3.16;51.88
35848;BME280;22332;51.954;20.118;2023-03-18T00:17:46;100555.00;;;3.15;52.12
35848;BME280;22332;51.954;20.118;2023-03-18T00:20:52;100549.44;;;3.14;52.14
35848;BME280;22332;51.954;20.118;2023-03-18T00:23:58;100546.59;;;3.11;52.20
35848;BME280;22332;51.954;20.118;2023-03-18T00:27:04;100543.55;;;3.10;52.26
35848;BME280;22332;51.954;20.118;2023-03-18T00:30:12;100538.86;;;3.09;52.43
35848;BME280;22332;51.954;20.118;2023-03-18T00:33:18;100536.39;;;3.06;52.29
35848;BME280;22332;51.954;20.118;2023-03-18T00:36:24;100533.27;;;3.06;52.34
35848;BME280;22332;51.954;20.118;2023-03-18T00:39:30;100528.58;;;3.05;52.23
35848;BME280;22332;51.954;20.118;2023-03-18T00:42:38;100527.02;;;3.05;52.39
35848;BME280;22332;51.954;20.118;2023-03-18T00:45:50;100523.80;;;3.05;52.47
35848;BME280;22332;51.954;20.118;2023-03-18T00:48:57;100515.63;;;3.04;52.64
35848;BME280;22332;51.954;20.118;2023-03-18T00:52:03;100518.48;;;3.03;52.37
35848;BME280;22332;51.954;20.118;2023-03-18T00:55:10;100515.99;;;3.04;52.38
35848;BME280;22332;51.954;20.118;2023-03-18T00:58:16;100508.23;;;3.04;52.66
35848;BME280;22332;51.954;20.118;2023-03-18T01:01:23;100511.67;;;3.05;52.59
35848;BME280;22332;51.954;20.118;2023-03-18T01:04:29;100508.34;;;3.05;52.64
35848;BME280;22332;51.954;20.118;2023-03-18T01:07:34;100505.31;;;3.06;52.57
35848;BME280;22332;51.954;20.118;2023-03-18T01:10:41;100501.18;;;3.07;52.83
35848;BME280;22332;51.954;20.118;2023-03-18T01:13:48;100502.29;;;3.06;52.64
35848;BME280;22332;51.954;20.118;2023-03-18T01:16:53;100508.09;;;3.06;52.78
35848;BME280;22332;51.954;20.118;2023-03-18T01:19:59;100499.84;;;3.06;52.78
35848;BME280;22332;51.954;20.118;2023-03-18T01:23:07;100495.59;;;3.07;52.73
35848;BME280;22332;51.954;20.118;2023-03-18T01:26:13;100489.51;;;3.06;52.94
35848;BME280;22332;51.954;20.118;2023-03-18T01:29:21;100487.36;;;3.04;52.85
35848;BME280;22332;51.954;20.118;2023-03-18T01:32:28;100483.95;;;3.02;52.96
35848;BME280;22332;51.954;20.118;2023-03-18T01:35:34;100478.02;;;3.01;52.86
35848;BME280;22332;51.954;20.118;2023-03-18T01:38:40;100470.00;;;3.00;52.91
35848;BME280;22332;51.954;20.118;2023-03-18T01:41:48;100470.11;;;2.98;53.05
35848;BME280;22332;51.954;20.118;2023-03-18T01:45:15;100468.13;;;2.97;52.76
35848;BME280;22332;51.954;20.118;2023-03-18T01:48:25;100467.17;;;2.98;52.90
35848;BME280;22332;51.954;20.118;2023-03-18T01:51:37;100466.55;;;2.96;52.96
35848;BME280;22332;51.954;20.118;2023-03-18T01:54:47;100469.27;;;2.95;53.09
35848;BME280;22332;51.954;20.118;2023-03-18T01:57:56;100466.06;;;2.93;53.14
35848;BME280;22332;51.954;20.118;2023-03-18T02:01:05;100464.71;;;2.92;53.27
35848;BME280;22332;51.954;20.118;2023-03-18T02:04:14;100467.04;;;2.92;52.97
35848;BME280;22332;51.954;20.118;2023-03-18T02:07:23;100470.25;;;2.91;52.96
35848;BME280;22332;51.954;20.118;2023-03-18T02:10:31;100466.59;;;2.90;52.93
35848;BME280;22332;51.954;20.118;2023-03-18T02:13:39;100461.42;;;2.89;52.98
35848;BME280;22332;51.954;20.118;2023-03-18T02:16:49;100464.17;;;2.87;52.88
35848;BME280;22332;51.954;20.118;2023-03-18T02:20:06;100467.77;;;2.86;53.13
35848;BME280;22332;51.954;20.118;2023-03-18T02:23:20;100465.20;;;2.85;53.20
35848;BME280;22332;51.954;20.118;2023-03-18T02:26:32;100457.15;;;2.82;53.20
35848;BME280;22332;51.954;20.118;2023-03-18T02:29:40;100455.32;;;2.80;53.14
35848;BME280;22332;51.954;20.118;2023-03-18T02:32:51;100456.66;;;2.78;53.24
35848;BME280;22332;51.954;20.118;2023-03-18T02:36:00;100450.88;;;2.75;53.20
35848;BME280;22332;51.954;20.118;2023-03-18T02:39:10;100448.22;;;2.72;53.39
35848;BME280;22332;51.954;20.118;2023-03-18T02:42:28;100446.77;;;2.70;53.25
35848;BME280;22332;51.954;20.118;2023-03-18T02:45:39;100445.42;;;2.69;53.35
35848;BME280;22332;51.954;20.118;2023-03-18T02:48:52;100440.20;;;2.69;53.59
35848;BME280;22332;51.954;20.118;2023-03-18T02:51:58;100438.42;;;2.66;53.33
35848;BME280;22332;51.954;20.118;2023-03-18T02:55:04;100438.12;;;2.66;53.39
35848;BME280;22332;51.954;20.118;2023-03-18T02:58:12;100436.34;;;2.63;53.40
35848;BME280;22332;51.954;20.118;2023-03-18T03:01:19;100439.76;;;2.62;53.26
35848;BME280;22332;51.954;20.118;2023-03-18T03:04:26;100437.99;;;2.62;53.49
35848;BME280;22332;51.954;20.118;2023-03-18T03:07:32;100442.25;;;2.62;53.33
35848;BME280;22332;51.954;20.118;2023-03-18T03:10:42;100441.06;;;2.61;53.38
35848;BME280;22332;51.954;20.118;2023-03-18T03:13:48;100441.48;;;2.60;53.45
35848;BME280;22332;51.954;20.118;2023-03-18T03:16:54;100438.35;;;2.59;53.43
35848;BME280;22332;51.954;20.118;2023-03-18T03:20:00;100441.30;;;2.57;53.57
35848;BME280;22332;51.954;20.118;2023-03-18T03:23:08;100445.14;;;2.58;53.58
35848;BME280;22332;51.954;20.118;2023-03-18T03:26:15;100447.48;;;2.57;53.48
35848;BME280;22332;51.954;20.118;2023-03-18T03:29:21;100452.63;;;2.56;53.52
35848;BME280;22332;51.954;20.118;2023-03-18T03:32:27;100456.30;;;2.56;53.43
35848;BME280;22332;51.954;20.118;2023-03-18T03:35:33;100460.36;;;2.55;53.47
35848;BME280;22332;51.954;20.118;2023-03-18T03:38:40;100457.11;;;2.54;53.56
35848;BME280;22332;51.954;20.118;2023-03-18T03:41:46;100458.11;;;2.52;53.61
35848;BME280;22332;51.954;20.118;2023-03-18T03:44:53;100460.87;;;2.50;53.53
35848;BME280;22332;51.954;20.118;2023-03-18T03:47:59;100457.27;;;2.49;53.64
35848;BME280;22332;51.954;20.118;2023-03-18T03:51:06;100459.25;;;2.48;53.47
35848;BME280;22332;51.954;20.118;2023-03-18T03:54:12;100457.08;;;2.46;53.63
35848;BME280;22332;51.954;20.118;2023-03-18T03:57:19;100458.92;;;2.45;53.51
35848;BME280;22332;51.954;20.118;2023-03-18T04:00:28;100456.52;;;2.44;53.73
35848;BME280;22332;51.954;20.118;2023-03-18T04:03:34;100455.29;;;2.41;53.65
35848;BME280;22332;51.954;20.118;2023-03-18T04:06:42;100458.48;;;2.38;53.61
35848;BME280;22332;51.954;20.118;2023-03-18T04:09:51;100453.45;;;2.36;53.59
35848;BME280;22332;51.954;20.118;2023-03-18T04:13:00;100451.06;;;2.36;53.72
35848;BME280;22332;51.954;20.118;2023-03-18T04:16:07;100454.19;;;2.33;53.48
35848;BME280;22332;51.954;20.118;2023-03-18T04:19:16;100455.02;;;2.31;53.67
35848;BME280;22332;51.954;20.118;2023-03-18T04:22:22;100450.58;;;2.29;53.65
35848;BME280;22332;51.954;20.118;2023-03-18T04:25:28;100453.63;;;2.28;53.60
35848;BME280;22332;51.954;20.118;2023-03-18T04:28:34;100454.77;;;2.27;53.56
35848;BME280;22332;51.954;20.118;2023-03-18T04:31:41;100446.79;;;2.26;53.59
35848;BME280;22332;51.954;20.118;2023-03-18T04:34:48;100449.31;;;2.24;53.50
35848;BME280;22332;51.954;20.118;2023-03-18T04:37:53;100448.15;;;2.23;53.65
35848;BME280;22332;51.954;20.118;2023-03-18T04:41:00;100448.95;;;2.22;53.64
35848;BME280;22332;51.954;20.118;2023-03-18T04:44:06;100453.16;;;2.22;53.52
35848;BME280;22332;51.954;20.118;2023-03-18T04:47:23;100452.83;;;2.22;53.62
35848;BME280;22332;51.954;20.118;2023-03-18T04:50:29;100448.31;;;2.21;53.65
35848;BME280;22332;51.954;20.118;2023-03-18T04:53:36;100449.10;;;2.22;53.64
35848;BME280;22332;51.954;20.118;2023-03-18T04:56:42;100450.61;;;2.23;53.78
35848;BME280;22332;51.954;20.118;2023-03-18T04:59:48;100452.33;;;2.24;53.62
35848;BME280;22332;51.954;20.118;2023-03-18T05:02:54;100450.89;;;2.25;53.91
35848;BME280;22332;51.954;20.118;2023-03-18T05:06:00;100451.96;;;2.27;53.78
35848;BME280;22332;51.954;20.118;2023-03-18T05:09:15;100455.81;;;2.30;53.84
35848;BME280;22332;51.954;20.118;2023-03-18T05:12:23;100454.42;;;2.32;53.78
35848;BME280;22332;51.954;20.118;2023-03-18T05:15:30;100458.27;;;2.35;53.89
35848;BME280;22332;51.954;20.118;2023-03-18T05:18:37;100454.75;;;2.39;53.78
35848;BME280;22332;51.954;20.118;2023-03-18T05:21:43;100457.84;;;2.43;53.86
35848;BME280;22332;51.954;20.118;2023-03-18T05:24:50;100463.34;;;2.47;53.80
35848;BME280;22332;51.954;20.118;2023-03-18T05:27:56;100462.39;;;2.54;53.91
35848;BME280;22332;51.954;20.118;2023-03-18T05:31:07;100461.10;;;2.61;53.89
35848;BME280;22332;51.954;20.118;2023-03-18T05:34:15;100466.38;;;2.66;53.89
35848;BME280;22332;51.954;20.118;2023-03-18T05:37:21;100460.40;;;2.71;53.88
35848;BME280;22332;51.954;20.118;2023-03-18T05:40:34;100462.79;;;2.79;53.88
35848;BME280;22332;51.954;20.118;2023-03-18T05:43:48;100467.56;;;2.84;53.77
35848;BME280;22332;51.954;20.118;2023-03-18T05:46:55;100466.64;;;2.87;53.69
35848;BME280;22332;51.954;20.118;2023-03-18T05:50:32;100465.74;;;2.95;53.72
35848;BME280;22332;51.954;20.118;2023-03-18T05:53:42;100462.36;;;3.02;53.71
35848;BME280;22332;51.954;20.118;2023-03-18T05:56:57;100468.50;;;3.07;53.46
35848;BME280;22332;51.954;20.118;2023-03-18T06:00:04;100469.09;;;3.14;53.71
35848;BME280;22332;51.954;20.118;2023-03-18T06:03:22;100471.20;;;3.22;53.66
35848;BME280;22332;51.954;20.118;2023-03-18T06:06:28;100477.27;;;3.29;53.52
35848;BME280;22332;51.954;20.118;2023-03-18T06:09:34;100479.09;;;3.33;53.44
35848;BME280;22332;51.954;20.118;2023-03-18T06:12:40;100478.64;;;3.35;53.47
35848;BME280;22332;51.954;20.118;2023-03-18T06:15:47;100480.41;;;3.40;53.47
35848;BME280;22332;51.954;20.118;2023-03-18T06:18:53;100474.40;;;3.43;53.67
35848;BME280;22332;51.954;20.118;2023-03-18T06:21:58;100471.31;;;3.47;53.61
35848;BME280;22332;51.954;20.118;2023-03-18T06:25:05;100475.75;;;3.55;53.43
35848;BME280;22332;51.954;20.118;2023-03-18T06:28:14;100476.57;;;3.61;53.57
35848;BME280;22332;51.954;20.118;2023-03-18T06:31:20;100477.86;;;3.68;53.54
35848;BME280;22332;51.954;20.118;2023-03-18T06:34:26;100475.27;;;3.75;53.49
35848;BME280;22332;51.954;20.118;2023-03-18T06:37:32;100477.61;;;3.82;53.46
35848;BME280;22332;51.954;20.118;2023-03-18T06:40:38;100478.90;;;3.89;53.35
35848;BME280;22332;51.954;20.118;2023-03-18T06:43:45;100483.75;;;3.98;53.31
35848;BME280;22332;51.954;20.118;2023-03-18T06:46:54;100483.55;;;4.08;53.29
35848;BME280;22332;51.954;20.118;2023-03-18T06:50:00;100486.30;;;4.17;53.18
35848;BME280;22332;51.954;20.118;2023-03-18T06:53:12;100488.86;;;4.26;53.16
35848;BME280;22332;51.954;20.118;2023-03-18T06:56:21;100491.64;;;4.37;53.13
35848;BME280;22332;51.954;20.118;2023-03-18T06:59:35;100489.59;;;4.48;53.03
35848;BME280;22332;51.954;20.118;2023-03-18T07:02:41;100489.36;;;4.61;52.85
35848;BME280;22332;51.954;20.118;2023-03-18T07:05:49;100491.16;;;4.76;52.84
35848;BME280;22332;51.954;20.118;2023-03-18T07:08:55;100495.99;;;4.89;52.93
35848;BME280;22332;51.954;20.118;2023-03-18T07:12:02;100497.65;;;5.03;52.31
35848;BME280;22332;51.954;20.118;2023-03-18T07:15:11;100494.27;;;5.18;52.33
35848;BME280;22332;51.954;20.118;2023-03-18T07:18:17;100501.66;;;5.30;52.57
35848;BME280;22332;51.954;20.118;2023-03-18T07:21:24;100496.18;;;5.45;52.25
35848;BME280;22332;51.954;20.118;2023-03-18T07:24:29;100494.40;;;5.57;52.20
35848;BME280;22332;51.954;20.118;2023-03-18T07:27:35;100495.89;;;5.65;52.23
35848;BME280;22332;51.954;20.118;2023-03-18T07:30:40;100499.05;;;5.77;52.09
35848;BME280;22332;51.954;20.118;2023-03-18T07:33:46;100501.41;;;5.90;52.27
35848;BME280;22332;51.954;20.118;2023-03-18T07:36:53;100499.85;;;6.02;51.84
35848;BME280;22332;51.954;20.118;2023-03-18T07:39:59;100499.98;;;6.14;51.93
35848;BME280;22332;51.954;20.118;2023-03-18T07:43:05;100501.27;;;6.27;51.95
35848;BME280;22332;51.954;20.118;2023-03-18T07:46:10;100506.05;;;6.41;51.51
35848;BME280;22332;51.954;20.118;2023-03-18T07:49:16;100508.07;;;6.51;51.38
35848;BME280;22332;51.954;20.118;2023-03-18T07:52:21;100505.59;;;6.60;51.69
35848;BME280;22332;51.954;20.118;2023-03-18T07:55:27;100502.24;;;6.69;51.07
35848;BME280;22332;51.954;20.118;2023-03-18T07:58:33;100499.05;;;6.74;50.83
35848;BME280;22332;51.954;20.118;2023-03-18T08:01:39;100495.80;;;6.77;50.57
35848;BME280;22332;51.954;20.118;2023-03-18T08:04:44;100494.95;;;6.85;51.12
35848;BME280;22332;51.954;20.118;2023-03-18T08:07:50;100495.86;;;6.91;49.87
35848;BME280;22332;51.954;20.118;2023-03-18T08:10:58;100494.23;;;6.92;50.35
35848;BME280;22332;51.954;20.118;2023-03-18T08:14:05;100492.95;;;6.99;50.37
35848;BME280;22332;51.954;20.118;2023-03-18T08:17:11;100492.67;;;7.07;50.50
35848;BME280;22332;51.954;20.118;2023-03-18T08:20:17;100487.77;;;7.13;50.14
35848;BME280;22332;51.954;20.118;2023-03-18T08:23:23;100483.32;;;7.13;49.77
35848;BME280;22332;51.954;20.118;2023-03-18T08:26:29;100483.61;;;7.18;50.10
35848;BME280;22332;51.954;20.118;2023-03-18T08:29:34;100478.29;;;7.27;50.21
35848;BME280;22332;51.954;20.118;2023-03-18T08:32:40;100477.07;;;7.36;50.21
35848;BME280;22332;51.954;20.118;2023-03-18T08:35:47;100473.74;;;7.41;50.06
35848;BME280;22332;51.954;20.118;2023-03-18T08:38:55;100471.62;;;7.48;50.02
35848;BME280;22332;51.954;20.118;2023-03-18T08:42:03;100468.51;;;7.53;49.50
35848;BME280;22332;51.954;20.118;2023-03-18T08:45:10;100466.85;;;7.59;49.75
35848;BME280;22332;51.954;20.118;2023-03-18T08:48:16;100465.08;;;7.65;49.66
35848;BME280;22332;51.954;20.118;2023-03-18T08:51:22;100463.05;;;7.72;49.08
35848;BME280;22332;51.954;20.118;2023-03-18T08:54:28;100461.71;;;7.80;49.63
35848;BME280;22332;51.954;20.118;2023-03-18T08:57:34;100459.42;;;7.85;49.26
35848;BME280;22332;51.954;20.118;2023-03-18T09:00:41;100456.52;;;7.93;49.57
35848;BME280;22332;51.954;20.118;2023-03-18T09:03:47;100459.75;;;8.00;49.36
35848;BME280;22332;51.954;20.118;2023-03-18T09:06:52;100454.67;;;8.08;49.45
35848;BME280;22332;51.954;20.118;2023-03-18T09:09:58;100457.67;;;8.14;49.19
35848;BME280;22332;51.954;20.118;2023-03-18T09:13:03;100455.02;;;8.18;49.30
35848;BME280;22332;51.954;20.118;2023-03-18T09:16:09;100459.87;;;8.26;48.89
35848;BME280;22332;51.954;20.118;2023-03-18T09:19:15;100453.80;;;8.33;48.31
35848;BME280;22332;51.954;20.118;2023-03-18T09:22:21;100453.84;;;8.32;48.87
35848;BME280;22332;51.954;20.118;2023-03-18T09:25:27;100455.55;;;8.35;48.94
35848;BME280;22332;51.954;20.118;2023-03-18T09:28:33;100450.27;;;8.41;48.74
35848;BME280;22332;51.954;20.118;2023-03-18T09:31:39;100446.80;;;8.42;48.29
35848;BME280;22332;51.954;20.118;2023-03-18T09:34:44;100445.16;;;8.44;48.43
35848;BME280;22332;51.954;20.118;2023-03-18T09:37:50;100442.19;;;8.52;48.60
35848;BME280;22332;51.954;20.118;2023-03-18T09:41:04;100437.23;;;8.60;48.36
35848;BME280;22332;51.954;20.118;2023-03-18T09:44:16;100442.37;;;8.70;48.52
35848;BME280;22332;51.954;20.118;2023-03-18T09:47:43;100443.36;;;8.81;48.10
35848;BME280;22332;51.954;20.118;2023-03-18T09:50:58;100439.56;;;8.92;48.21
35848;BME280;22332;51.954;20.118;2023-03-18T09:54:13;100436.42;;;9.03;48.12
35848;BME280;22332;51.954;20.118;2023-03-18T09:57:24;100436.42;;;9.17;48.16
35848;BME280;22332;51.954;20.118;2023-03-18T10:00:33;100440.23;;;9.28;47.80
35848;BME280;22332;51.954;20.118;2023-03-18T10:03:43;100427.81;;;9.35;47.95
35848;BME280;22332;51.954;20.118;2023-03-18T10:06:56;100424.77;;;9.45;48.00
35848;BME280;22332;51.954;20.118;2023-03-18T10:10:06;100425.08;;;9.54;47.60
35848;BME280;22332;51.954;20.118;2023-03-18T10:13:18;100424.39;;;9.63;47.76
35848;BME280;22332;51.954;20.118;2023-03-18T10:16:28;100422.54;;;9.71;48.07
35848;BME280;22332;51.954;20.118;2023-03-18T10:19:36;100417.34;;;9.81;47.78
35848;BME280;22332;51.954;20.118;2023-03-18T10:22:53;100412.16;;;9.91;46.95
35848;BME280;22332;51.954;20.118;2023-03-18T10:26:05;100414.02;;;9.98;47.19
35848;BME280;22332;51.954;20.118;2023-03-18T10:29:35;100405.95;;;10.02;46.53
35848;BME280;22332;51.954;20.118;2023-03-18T10:32:48;100409.32;;;10.08;47.21
35848;BME280;22332;51.954;20.118;2023-03-18T10:36:04;100399.54;;;10.14;46.91
35848;BME280;22332;51.954;20.118;2023-03-18T10:39:14;100392.74;;;10.19;46.94
35848;BME280;22332;51.954;20.118;2023-03-18T10:42:24;100392.17;;;10.28;46.66
35848;BME280;22332;51.954;20.118;2023-03-18T10:45:32;100385.50;;;10.33;46.75
35848;BME280;22332;51.954;20.118;2023-03-18T10:48:39;100380.48;;;10.36;46.53
35848;BME280;22332;51.954;20.118;2023-03-18T10:51:51;100378.19;;;10.40;46.23
35848;BME280;22332;51.954;20.118;2023-03-18T10:54:57;100379.20;;;10.46;46.57
35848;BME280;22332;51.954;20.118;2023-03-18T10:58:14;100380.36;;;10.52;46.55
35848;BME280;22332;51.954;20.118;2023-03-18T11:01:22;100376.54;;;10.63;46.59
35848;BME280;22332;51.954;20.118;2023-03-18T11:04:30;100382.14;;;10.73;46.34
35848;BME280;22332;51.954;20.118;2023-03-18T11:07:55;100371.86;;;10.78;45.79
35848;BME280;22332;51.954;20.118;2023-03-18T11:11:20;100367.61;;;10.85;45.88
35848;BME280;22332;51.954;20.118;2023-03-18T11:14:30;100360.81;;;10.92;45.95
35848;BME280;22332;51.954;20.118;2023-03-18T11:17:37;100362.09;;;11.01;45.55
35848;BME280;22332;51.954;20.118;2023-03-18T11:20:45;100357.70;;;11.09;45.93
35848;BME280;22332;51.954;20.118;2023-03-18T11:23:58;100355.02;;;11.15;44.82
35848;BME280;22332;51.954;20.118;2023-03-18T11:27:28;100352.03;;;11.14;45.20
35848;BME280;22332;51.954;20.118;2023-03-18T11:30:47;100351.98;;;11.17;44.76
35848;BME280;22332;51.954;20.118;2023-03-18T11:33:58;100346.84;;;11.20;44.90
35848;BME280;22332;51.954;20.118;2023-03-18T11:37:05;100343.19;;;11.24;44.47
35848;BME280;22332;51.954;20.118;2023-03-18T11:40:21;100340.66;;;11.30;45.00
35848;BME280;22332;51.954;20.118;2023-03-18T11:43:28;100333.15;;;11.34;44.74
35848;BME280;22332;51.954;20.118;2023-03-18T11:46:36;100327.42;;;11.37;44.26
35848;BME280;22332;51.954;20.118;2023-03-18T11:49:43;100322.33;;;11.44;44.28
35848;BME280;22332;51.954;20.118;2023-03-18T11:52:53;100324.11;;;11.52;44.67
35848;BME280;22332;51.954;20.118;2023-03-18T11:56:01;100323.20;;;11.60;43.71
35848;BME280;22332;51.954;20.118;2023-03-18T11:59:23;100317.46;;;11.69;44.15
35848;BME280;22332;51.954;20.118;2023-03-18T12:02:44;100312.16;;;11.78;44.28
35848;BME280;22332;51.954;20.118;2023-03-18T12:09:40;100308.38;;;11.96;43.72
35848;BME280;22332;51.954;20.118;2023-03-18T12:13:13;100306.42;;;12.03;44.00
35848;BME280;22332;51.954;20.118;2023-03-18T12:16:32;100303.73;;;12.10;43.83
35848;BME280;22332;51.954;20.118;2023-03-18T12:20:02;100298.14;;;12.11;43.15
35848;BME280;22332;51.954;20.118;2023-03-18T12:26:47;100291.98;;;12.13;43.98
35848;BME280;22332;51.954;20.118;2023-03-18T12:30:07;100294.58;;;12.19;44.10
35848;BME280;22332;51.954;20.118;2023-03-18T12:33:29;100294.77;;;12.24;43.53
35848;BME280;22332;51.954;20.118;2023-03-18T12:36:48;100291.63;;;12.29;43.73
35848;BME280;22332;51.954;20.118;2023-03-18T12:40:18;100287.83;;;12.34;43.95
35848;BME280;22332;51.954;20.118;2023-03-18T12:43:41;100289.78;;;12.41;43.98
35848;BME280;22332;51.954;20.118;2023-03-18T12:46:54;100286.30;;;12.51;43.62
35848;BME280;22332;51.954;20.118;2023-03-18T12:50:04;100284.30;;;12.64;43.65
35848;BME280;22332;51.954;20.118;2023-03-18T12:53:15;100276.58;;;12.71;43.62
35848;BME280;22332;51.954;20.118;2023-03-18T12:56:23;100270.09;;;12.80;43.46
35848;BME280;22332;51.954;20.118;2023-03-18T12:59:35;100270.66;;;12.86;43.40
35848;BME280;22332;51.954;20.118;2023-03-18T13:02:49;100265.39;;;12.91;42.98
35848;BME280;22332;51.954;20.118;2023-03-18T13:06:01;100265.03;;;12.91;43.00
35848;BME280;22332;51.954;20.118;2023-03-18T13:09:13;100265.05;;;12.88;43.14
35848;BME280;22332;51.954;20.118;2023-03-18T13:12:25;100260.35;;;12.85;43.17
35848;BME280;22332;51.954;20.118;2023-03-18T13:15:33;100258.97;;;12.80;42.68
35848;BME280;22332;51.954;20.118;2023-03-18T13:18:42;100252.92;;;12.75;42.61
35848;BME280;22332;51.954;20.118;2023-03-18T13:21:52;100243.82;;;12.70;42.47
35848;BME280;22332;51.954;20.118;2023-03-18T13:25:01;100237.95;;;12.65;42.55
35848;BME280;22332;51.954;20.118;2023-03-18T13:28:22;100237.46;;;12.61;42.79
35848;BME280;22332;51.954;20.118;2023-03-18T13:31:40;100240.34;;;12.61;42.94
35848;BME280;22332;51.954;20.118;2023-03-18T13:35:01;100233.70;;;12.65;43.12
35848;BME280;22332;51.954;20.118;2023-03-18T13:38:33;100231.23;;;12.66;42.77
35848;BME280;22332;51.954;20.118;2023-03-18T13:42:13;100226.91;;;12.70;42.83
35848;BME280;22332;51.954;20.118;2023-03-18T13:45:28;100226.27;;;12.67;42.78
35848;BME280;22332;51.954;20.118;2023-03-18T13:48:36;100224.91;;;12.65;42.83
35848;BME280;22332;51.954;20.118;2023-03-18T13:51:57;100223.22;;;12.67;42.94
35848;BME280;22332;51.954;20.118;2023-03-18T13:55:06;100228.70;;;12.71;42.84
35848;BME280;22332;51.954;20.118;2023-03-18T13:58:22;100226.44;;;12.72;42.07
35848;BME280;22332;51.954;20.118;2023-03-18T14:01:31;100228.84;;;12.73;42.66
35848;BME280;22332;51.954;20.118;2023-03-18T14:04:47;100229.64;;;12.74;42.43
35848;BME280;22332;51.954;20.118;2023-03-18T14:07:55;100231.02;;;12.74;42.37
35848;BME280;22332;51.954;20.118;2023-03-18T14:15:01;100228.58;;;12.72;42.59
35848;BME280;22332;51.954;20.118;2023-03-18T14:18:23;100222.50;;;12.71;42.52
35848;BME280;22332;51.954;20.118;2023-03-18T14:21:31;100224.64;;;12.71;42.58
35848;BME280;22332;51.954;20.118;2023-03-18T14:24:47;100221.31;;;12.73;42.85
35848;BME280;22332;51.954;20.118;2023-03-18T14:28:23;100223.20;;;12.79;42.72
35848;BME280;22332;51.954;20.118;2023-03-18T14:31:50;100221.69;;;12.85;42.86
35848;BME280;22332;51.954;20.118;2023-03-18T14:35:02;100221.85;;;12.91;42.68
35848;BME280;22332;51.954;20.118;2023-03-18T14:38:14;100220.70;;;12.97;42.30
35848;BME280;22332;51.954;20.118;2023-03-18T14:41:26;100224.17;;;13.01;42.18
35848;BME280;22332;51.954;20.118;2023-03-18T14:44:38;100224.27;;;13.07;42.57
35848;BME280;22332;51.954;20.118;2023-03-18T14:47:47;100219.84;;;13.09;42.12
35848;BME280;22332;51.954;20.118;2023-03-18T14:50:55;100224.22;;;13.12;42.11
35848;BME280;22332;51.954;20.118;2023-03-18T14:54:05;100218.63;;;13.12;42.06
35848;BME280;22332;51.954;20.118;2023-03-18T14:57:11;100218.00;;;13.11;42.26
35848;BME280;22332;51.954;20.118;2023-03-18T15:00:20;100215.39;;;13.09;42.26
35848;BME280;22332;51.954;20.118;2023-03-18T15:03:28;100210.50;;;13.05;42.10
35848;BME280;22332;51.954;20.118;2023-03-18T15:06:38;100210.08;;;13.03;42.31
35848;BME280;22332;51.954;20.118;2023-03-18T15:09:46;100208.05;;;13.00;42.32
35848;BME280;22332;51.954;20.118;2023-03-18T15:13:01;100208.34;;;12.97;42.31
35848;BME280;22332;51.954;20.118;2023-03-18T15:16:15;100211.73;;;12.95;42.49
35848;BME280;22332;51.954;20.118;2023-03-18T15:19:22;100207.12;;;12.93;42.08
35848;BME280;22332;51.954;20.118;2023-03-18T15:22:29;100211.56;;;12.92;42.22
35848;BME280;22332;51.954;20.118;2023-03-18T15:25:37;100208.42;;;12.90;42.40
35848;BME280;22332;51.954;20.118;2023-03-18T15:28:46;100207.89;;;12.87;42.45
35848;BME280;22332;51.954;20.118;2023-03-18T15:31:52;100209.50;;;12.83;42.35
35848;BME280;22332;51.954;20.118;2023-03-18T15:35:11;100207.34;;;12.79;42.42
35848;BME280;22332;51.954;20.118;2023-03-18T15:38:23;100212.15;;;12.74;42.56
35848;BME280;22332;51.954;20.118;2023-03-18T15:41:31;100211.09;;;12.69;42.46
35848;BME280;22332;51.954;20.118;2023-03-18T15:44:38;100213.16;;;12.63;42.40
35848;BME280;22332;51.954;20.118;2023-03-18T15:47:45;100213.92;;;12.58;42.30
35848;BME280;22332;51.954;20.118;2023-03-18T15:51:01;100217.97;;;12.50;42.32
35848;BME280;22332;51.954;20.118;2023-03-18T15:54:16;100215.65;;;12.42;42.18
35848;BME280;22332;51.954;20.118;2023-03-18T15:57:30;100216.63;;;12.33;42.36
35848;BME280;22332;51.954;20.118;2023-03-18T16:00:40;100218.08;;;12.24;42.25
35848;BME280;22332;51.954;20.118;2023-03-18T16:03:46;100226.70;;;12.17;42.35
35848;BME280;22332;51.954;20.118;2023-03-18T16:06:52;100229.63;;;12.09;42.50
35848;BME280;22332;51.954;20.118;2023-03-18T16:09:58;100236.89;;;12.03;42.37
35848;BME280;22332;51.954;20.118;2023-03-18T16:13:03;100240.48;;;11.96;42.45
35848;BME280;22332;51.954;20.118;2023-03-18T16:16:15;100241.48;;;11.90;42.47
35848;BME280;22332;51.954;20.118;2023-03-18T16:19:24;100241.52;;;11.83;42.68
35848;BME280;22332;51.954;20.118;2023-03-18T16:22:31;100243.89;;;11.75;42.81
35848;BME280;22332;51.954;20.118;2023-03-18T16:25:37;100239.75;;;11.67;42.75
35848;BME280;22332;51.954;20.118;2023-03-18T16:28:44;100240.05;;;11.59;42.71
35848;BME280;22332;51.954;20.118;2023-03-18T16:31:49;100239.96;;;11.50;42.78
35848;BME280;22332;51.954;20.118;2023-03-18T16:34:55;100238.91;;;11.39;42.94
35848;BME280;22332;51.954;20.118;2023-03-18T16:38:01;100240.24;;;11.28;42.97